Impacts TAF Board
For situational awareness. Not to be used for flight planning purposes.
IDs:

KDCA - Washington/National, VA, US

Issued at 2324 UTC 23 May 2019
Updated at 0114 UTC 24 May 2019
Potential Impact None Slight Moderate High
Time0052Z 24/02Z 24/03Z 24/04Z 24/05Z 24/06Z 24/07Z 24/08Z 24/09Z 24/10Z 24/11Z 24/12Z 24/13Z 24/14Z>>
Type OBS PRVL PRVL PRVL PRVL PRVL PRVL PRVL PRVL PRVL PRVL PRVL PRVL PRVL
VIS 10 >6 >6 >6 >6 >6 >6 >6 >6 >6 >6 >6 >6 >6
CIG 250 110 110 110 110 110 110 -- -- -- -- -- -- --
Cover BKN BKN BKN BKN BKN BKN BKN FEW FEW FEW FEW FEW FEW FEW
FltCat VFR VFR VFR VFR VFR VFR VFR VFR VFR VFR VFR VFR VFR VFR
WX -- -- -- -- -- -- -- -- -- -- -- -- -- --
WDir 190 180 180 180 180 180 180 300 300 300 300 320 320 320
WSpd 7 9 9 9 9 9 9 7 7 7 7 10 10 10
WGst -- -- -- -- -- -- -- -- -- -- -- 18 18 18
Raw TAF
KDCA 232324Z 2400/2506 18009KT P6SM SCT080 BKN110
  FM240800 30007KT P6SM FEW250
  FM241200 32010G18KT P6SM FEW250
  FM242200 33011KT P6SM FEW250
  FM250200 02005KT P6SM FEW090


Raw METAR
KDCA 240052Z 19007KT 10SM FEW075 BKN250 22/20 A2997 RMK AO2 SLP149 T02220200
KDCA 232352Z 18008KT 10SM FEW075 SCT120 BKN250 22/20 A2998 RMK AO2 SLP150 60031 T02220200 10294 20206 56013
KDCA 232252Z 18008KT 10SM FEW100 BKN250 22/19 A2999 RMK AO2 SLP154 T02220194

METAR Board
Radar Display
Forecast Discussion
For situational awareness. Not to be used for flight planning purposes.